Thunder radar more information blitzortung!


Radar de pluja more information rain snow radar


Visita la nostra xarxa de llocs de meteo:

Template documentation
and downloads

And another site



No particular awareness of the weather is required.    There are no Weather-warnings

Pagina Historial Weather Underground text

Diari Resum Abril 18, 2016 Unitats:  Mètric    Imperial   Tant
« Previous Dia
SegĂźent Dia »
Diari Setmana Mensual Anual Personalitzada
  Maxima: Minima: Media:
Temperatura: -17.8 °C -13.2 °C -9.1 °C
Punt de rosada: -17.8 °C -15.6 °C -13.8 °C
Humitat: Humidity % 44 % 58 %
Wind Speed: 0 km/h 0 km/h 14.5 km/h
RĂ fegues de vent: 0 km/h - -
Vent:- - SSE
Pression baro: 0 hPa 34462.7 hPa -
Precipitacions: 0 mm    
Historical Graphs
 
 
Dades de taula per Abril 18, 2016
Temps Temperatura Punt de rosada Pression baro Vent Wind Speed RĂ fegues de vent Humitat Rainfall Rate (Hourly)
-17.8 °C -17.8 °C 0 hPa Calm     Humidity % 0 mm
00:00 -9.8 °C -14.9 °C 34496.6 hPa NNE 9 km/h 9 km/h 54 % 0 mm
00:05 -9.8 °C -14.8 °C 34496.6 hPa ENE 5.1 km/h 7.7 km/h 55 % 0 mm
00:10 -11.6 °C -14.7 °C 34462.7 hPa WSW 2.6 km/h 2.6 km/h 68 % 0 mm
00:20 -11.5 °C -14.8 °C 34496.6 hPa WSW 2.6 km/h 5.1 km/h 67 % 0 mm
00:30 -11.6 °C -14.6 °C 34496.6 hPa Calm   2.6 km/h 69 % 0 mm
00:40 -11.6 °C -14.6 °C 34496.6 hPa Calm   5.1 km/h 70 % 0 mm
00:50 -11.7 °C -14.8 °C 34496.6 hPa Calm   5.1 km/h 69 % 0 mm
01:00 -11.8 °C -14.7 °C 34496.6 hPa East 2.6 km/h 2.6 km/h 70 % 0 mm
01:10 -11.9 °C -14.7 °C 34496.6 hPa Calm   5.1 km/h 71 % 0 mm
01:20 -11.9 °C -14.8 °C 34496.6 hPa Calm   2.6 km/h 71 % 0 mm
01:30 -11.9 °C -14.6 °C 34496.6 hPa ENE 2.6 km/h 5.1 km/h 72 % 0 mm
01:40 -12 °C -14.7 °C 34496.6 hPa Calm   2.6 km/h 72 % 0 mm
01:50 -12.2 °C -14.9 °C 34496.6 hPa Calm   2.6 km/h 71 % 0 mm
02:00 -12.3 °C -15.1 °C 34496.6 hPa Calm     71 % 0 mm
02:10 -12.3 °C -14.9 °C 34496.6 hPa Calm     73 % 0 mm
02:20 -12.4 °C -14.8 °C 34496.6 hPa Calm     74 % 0 mm
02:30 -12.4 °C -15.1 °C 34496.6 hPa Calm   5.1 km/h 72 % 0 mm
02:40 -12.5 °C -15.1 °C 34496.6 hPa Calm   2.6 km/h 73 % 0 mm
02:50 -12.5 °C -15.1 °C 34533.8 hPa Calm   5.1 km/h 73 % 0 mm
03:00 -12.4 °C -15.1 °C 34533.8 hPa Calm   5.1 km/h 72 % 0 mm
03:10 -12.3 °C -14.9 °C 34533.8 hPa Calm   2.6 km/h 73 % 0 mm
03:20 -12.1 °C -14.7 °C 34533.8 hPa SSW 2.6 km/h 5.1 km/h 73 % 0 mm
03:30 -11.7 °C -14.1 °C 34496.6 hPa SW 2.6 km/h 5.1 km/h 74 % 0 mm
03:40 -11.3 °C -14.1 °C 34496.6 hPa South 2.6 km/h 5.1 km/h 72 % 0 mm
03:50 -11.3 °C -14.2 °C 34496.6 hPa South 2.6 km/h 5.1 km/h 70 % 0 mm
04:00 -11.1 °C -14 °C 34496.6 hPa SW 5.1 km/h 5.1 km/h 70 % 0 mm
04:10 -10.9 °C -13.9 °C 34496.6 hPa SW 2.6 km/h 5.1 km/h 70 % 0 mm
04:20 -10.5 °C -13.6 °C 34533.8 hPa SW 5.1 km/h 5.1 km/h 69 % 0 mm
04:30 -10.1 °C -13.2 °C 34533.8 hPa Calm   5.1 km/h 69 % 0 mm
04:40 -9.7 °C -12.9 °C 34533.8 hPa ENE 5.1 km/h 7.7 km/h 68 % 0 mm
04:50 -9.5 °C -13 °C 34533.8 hPa ENE 5.1 km/h 7.7 km/h 66 % 0 mm
05:00 -9.4 °C -13.1 °C 34533.8 hPa NE 7.7 km/h 10.3 km/h 65 % 0 mm
05:10 -9.2 °C -12.9 °C 34533.8 hPa NE 5.1 km/h 7.7 km/h 64 % 0 mm
05:20 -9.1 °C -13.2 °C 34533.8 hPa NE 5.1 km/h 10.3 km/h 62 % 0 mm
05:30 -8.8 °C -12.9 °C 34533.8 hPa NE 5.1 km/h 7.7 km/h 62 % 0 mm
05:40 -8.7 °C -12.9 °C 34533.8 hPa NNE 5.1 km/h 7.7 km/h 61 % 0 mm
05:50 -8.2 °C -12.7 °C 34533.8 hPa West 2.6 km/h 7.7 km/h 59 % 0 mm
06:00 -7.9 °C -12.6 °C 34533.8 hPa NW 2.6 km/h 5.1 km/h 58 % 0 mm
06:10 -7.6 °C -12.4 °C 34533.8 hPa ENE 5.1 km/h 7.7 km/h 57 % 0 mm
06:20 -7.7 °C -12.6 °C 34533.8 hPa SE 12.9 km/h 12.9 km/h 56 % 0 mm
11:31 -7.4 °C -12.6 °C 34567.7 hPa SW 9 km/h 9 km/h 55 % 0 mm
11:36 -7.1 °C -12.3 °C 34567.7 hPa WSW 3.7 km/h 5.6 km/h 54 % 0 mm
11:41 -6.9 °C -12.3 °C 34567.7 hPa WSW 9.3 km/h 9.3 km/h 53 % 0 mm
11:46 -7 °C -12.6 °C 34533.8 hPa West 15 km/h 15 km/h 52 % 0 mm
11:51 -7.2 °C -13 °C 34533.8 hPa SW 11.9 km/h 11.9 km/h 51 % 0 mm
11:56 -7.2 °C -13.1 °C 34533.8 hPa WSW 6 km/h 6 km/h 50 % 0 mm
12:06 -6.8 °C -12.9 °C 34496.6 hPa South 6.3 km/h 12.2 km/h 49 % 0 mm
12:11 -6.5 °C -12.7 °C 34496.6 hPa SSE 9 km/h 9 km/h 49 % 0 mm
12:16 -6.7 °C -12.8 °C 34533.8 hPa ESE 15 km/h 15.3 km/h 49 % 0 mm
12:21 -6.7 °C -12.8 °C 34533.8 hPa SSW 9 km/h 9 km/h 49 % 0 mm
12:26 -6.8 °C -13.1 °C 34533.8 hPa SW 9.8 km/h 9.8 km/h 48 % 0 mm
12:31 -6.7 °C -13 °C 34533.8 hPa WSW 15.6 km/h 15.6 km/h 48 % 0 mm
12:36 -6.8 °C -13.1 °C 34533.8 hPa SW 6.3 km/h 9.8 km/h 48 % 0 mm
12:41 -6.9 °C -13.2 °C 34533.8 hPa SW 3.1 km/h 4.2 km/h 48 % 0 mm
12:46 -6.7 °C -13 °C 34533.8 hPa WSW 6.8 km/h 7.6 km/h 48 % 0 mm
12:51 -6.8 °C -13.2 °C 34533.8 hPa ESE 6 km/h 6 km/h 47 % 0 mm
12:56 -6.7 °C -13 °C 34533.8 hPa East 15 km/h 15 km/h 48 % 0 mm
13:01 -6.8 °C -12.9 °C 34533.8 hPa ENE 15 km/h 15 km/h 49 % 0 mm
13:06 -6.8 °C -12.7 °C 34533.8 hPa ENE 14 km/h 14 km/h 50 % 0 mm
13:11 -6.8 °C -12.7 °C 34533.8 hPa ESE 11.9 km/h 11.9 km/h 50 % 0 mm
13:16 -6.9 °C -12.8 °C 34567.7 hPa ESE 6 km/h 6.3 km/h 50 % 0 mm
13:21 -6.9 °C -12.9 °C 34567.7 hPa ESE 3.1 km/h 6.3 km/h 50 % 0 mm
13:26 -7 °C -12.9 °C 34567.7 hPa SSE 20.9 km/h 20.9 km/h 50 % 0 mm
13:31 -7.2 °C -13 °C 34533.8 hPa ENE 23.8 km/h 23.8 km/h 51 % 0 mm
13:36 -7.2 °C -13 °C 34533.8 hPa SE 9 km/h 17.9 km/h 51 % 0 mm
13:41 -7.3 °C -12.9 °C 34533.8 hPa SSE 9 km/h 9.8 km/h 52 % 0 mm
13:46 -7.3 °C -12.9 °C 34533.8 hPa ESE 29.5 km/h 29.5 km/h 52 % 0 mm
13:51 -7.4 °C -12.8 °C 34533.8 hPa SSW 15 km/h 15 km/h 53 % 0 mm
13:56 -7.3 °C -12.8 °C 34533.8 hPa SSW 9.8 km/h 14 km/h 53 % 0 mm
14:01 -7.4 °C -12.8 °C 34533.8 hPa ESE 11.9 km/h 11.9 km/h 53 % 0 mm
14:11 -7.4 °C -12.9 °C 34533.8 hPa WNW 20.9 km/h 20.9 km/h 53 % 0 mm
14:16 -7.1 °C -12.7 °C 34533.8 hPa SE 15 km/h 15 km/h 52 % 0 mm
14:21 -7.1 °C -12.7 °C 34533.8 hPa SSW 11.9 km/h 12.2 km/h 52 % 0 mm
14:26 -7.3 °C -12.7 °C 34533.8 hPa South 20.9 km/h 20.9 km/h 53 % 0 mm
14:31 -7.2 °C -13 °C 34533.8 hPa ENE 20.9 km/h 20.9 km/h 51 % 0 mm
14:36 -7.2 °C -13 °C 34533.8 hPa South 12.2 km/h 12.2 km/h 51 % 0 mm
14:41 -7.2 °C -13 °C 34533.8 hPa SSE 6.3 km/h 6.8 km/h 51 % 0 mm
14:46 -7.1 °C -12.8 °C 34533.8 hPa SSE 6.3 km/h 6.8 km/h 51 % 0 mm
14:56 -6.7 °C -12.4 °C 34533.8 hPa SSW 15 km/h 15 km/h 51 % 0 mm
15:01 -6.3 °C -12.3 °C 34496.6 hPa SSE 9.3 km/h 9.3 km/h 50 % 0 mm
15:06 -5.9 °C -12.3 °C 34496.6 hPa South 20.9 km/h 20.9 km/h 48 % 0 mm
15:11 -5.9 °C -12.5 °C 34496.6 hPa ESE 29.8 km/h 29.8 km/h 47 % 0 mm
15:16 -5.9 °C -12.3 °C 34533.8 hPa East 11.9 km/h 11.9 km/h 48 % 0 mm
15:21 -6 °C -12.6 °C 34533.8 hPa SW 9 km/h 9 km/h 47 % 0 mm
15:26 -5.6 °C -12.1 °C 34533.8 hPa SSW 11.9 km/h 11.9 km/h 47 % 0 mm
15:31 -5.8 °C -12.6 °C 34533.8 hPa WSW 15 km/h 15 km/h 46 % 0 mm
15:36 -6.2 °C -12.7 °C 34533.8 hPa SW 17.9 km/h 17.9 km/h 47 % 0 mm
15:41 -6.3 °C -12.8 °C 34533.8 hPa WSW 20.9 km/h 20.9 km/h 47 % 0 mm
15:46 -6.3 °C -12.8 °C 34533.8 hPa SW 9 km/h 9 km/h 47 % 0 mm
15:51 -6.1 °C -13 °C 34533.8 hPa WSW 11.9 km/h 11.9 km/h 45 % 0 mm
15:56 -6.3 °C -12.8 °C 34533.8 hPa SW 15 km/h 15 km/h 47 % 0 mm
16:01 -6.1 °C -13 °C 34533.8 hPa WSW 15 km/h 15 km/h 45 % 0 mm
16:06 -5.8 °C -12.7 °C 34533.8 hPa SW 6 km/h 6 km/h 45 % 0 mm
16:11 -5.9 °C -13 °C 34533.8 hPa WSW 6.8 km/h 6.8 km/h 44 % 0 mm
16:16 -5.9 °C -13 °C 34533.8 hPa South 6.3 km/h 6.3 km/h 44 % 0 mm
16:21 -5.7 °C -12.8 °C 34533.8 hPa WSW 9 km/h 9 km/h 44 % 0 mm
16:26 -6.4 °C -13.3 °C 34533.8 hPa WSW 20.9 km/h 20.9 km/h 45 % 0 mm
16:31 -6.6 °C -13.3 °C 34496.6 hPa ENE 11.9 km/h 11.9 km/h 46 % 0 mm
16:36 -7.1 °C -13.5 °C 34496.6 hPa SE 35.7 km/h 35.7 km/h 47 % 0 mm
16:41 -7.3 °C -13.4 °C 34496.6 hPa East 11.9 km/h 11.9 km/h 49 % 0 mm
16:46 -7.6 °C -13.6 °C 34533.8 hPa ESE 26.9 km/h 26.9 km/h 49 % 0 mm
16:51 -7.6 °C -13.5 °C 34533.8 hPa SE 29.8 km/h 29.8 km/h 50 % 0 mm
16:56 -7.7 °C -13.6 °C 34533.8 hPa ESE 38.8 km/h 38.8 km/h 50 % 0 mm
17:01 -7.7 °C -13.6 °C 34533.8 hPa ESE 20.9 km/h 20.9 km/h 50 % 0 mm
17:06 -7.9 °C -13.8 °C 34533.8 hPa ESE 35.7 km/h 35.7 km/h 50 % 0 mm
17:11 -8 °C -13.8 °C 34533.8 hPa East 20.9 km/h 20.9 km/h 50 % 0 mm
17:16 -8.1 °C -13.8 °C 34533.8 hPa ESE 26.4 km/h 26.4 km/h 51 % 0 mm
17:21 -8.3 °C -13.9 °C 34533.8 hPa ESE 26.9 km/h 26.9 km/h 51 % 0 mm
17:26 -7.9 °C -13.7 °C 34533.8 hPa SE 11.1 km/h 11.1 km/h 51 % 0 mm
17:31 -7.8 °C -13.5 °C 34533.8 hPa SE 11.9 km/h 11.9 km/h 51 % 0 mm
17:36 -7.8 °C -13.5 °C 34533.8 hPa SSE 23.8 km/h 23.8 km/h 51 % 0 mm
17:41 -7.8 °C -13.5 °C 34533.8 hPa ESE 16.6 km/h 16.6 km/h 51 % 0 mm
17:51 -7.8 °C -13.6 °C 34533.8 hPa West 6 km/h 6 km/h 51 % 0 mm
17:56 -7.7 °C -13.4 °C 34533.8 hPa ESE 12.7 km/h 12.7 km/h 51 % 0 mm
18:01 -7.6 °C -13.3 °C 34533.8 hPa WNW 6 km/h 6 km/h 51 % 0 mm
18:06 -7.4 °C -13.2 °C 34533.8 hPa East 11.9 km/h 11.9 km/h 51 % 0 mm
18:11 -7.6 °C -13.3 °C 34533.8 hPa SSW 23.8 km/h 23.8 km/h 51 % 0 mm
18:16 -7.9 °C -13.6 °C 34533.8 hPa ESE 15 km/h 15 km/h 51 % 0 mm
18:21 -8.3 °C -13.8 °C 34533.8 hPa East 25.1 km/h 25.1 km/h 52 % 0 mm
18:26 -8.6 °C -13.9 °C 34533.8 hPa ENE 26.9 km/h 26.9 km/h 53 % 0 mm
18:31 -8.8 °C -13.9 °C 34533.8 hPa ESE 32.8 km/h 32.8 km/h 54 % 0 mm
18:36 -8.8 °C -14 °C 34533.8 hPa ENE 36.2 km/h 36.2 km/h 54 % 0 mm
18:41 -9 °C -14 °C 34533.8 hPa ESE 26.9 km/h 26.9 km/h 55 % 0 mm
18:46 -9 °C -14 °C 34533.8 hPa ESE 26.9 km/h 26.9 km/h 55 % 0 mm
18:51 -9 °C -14 °C 34533.8 hPa ESE 26.9 km/h 26.9 km/h 55 % 0 mm
18:56 -9 °C -14 °C 34533.8 hPa ESE 26.9 km/h 26.9 km/h 55 % 0 mm
19:01 -9 °C -14 °C 34533.8 hPa ESE 26.9 km/h 26.9 km/h 55 % 0 mm
19:06 -9 °C -14 °C 34533.8 hPa ESE 26.9 km/h 26.9 km/h 55 % 0 mm
19:10 -11.6 °C -14.5 °C 34635.4 hPa ESE 2.6 km/h   70 % 0 mm
19:11 -9 °C -14 °C 34533.8 hPa ESE 26.9 km/h 26.9 km/h 55 % 0 mm
19:16 -9 °C -14 °C 34533.8 hPa ESE 26.9 km/h 26.9 km/h 55 % 0 mm
19:20 -11.6 °C -14.6 °C 34601.5 hPa East 2.6 km/h 5.1 km/h 70 % 0 mm
19:21 -9 °C -14 °C 34533.8 hPa ESE 26.9 km/h 26.9 km/h 55 % 0 mm
19:26 -9 °C -14 °C 34533.8 hPa ESE 26.9 km/h 26.9 km/h 55 % 0 mm
19:30 -11.7 °C -14.7 °C 34601.5 hPa North 2.6 km/h 5.1 km/h 69 % 0 mm
19:31 -9 °C -14 °C 34533.8 hPa ESE 26.9 km/h 26.9 km/h 55 % 0 mm
19:36 -9 °C -14 °C 34533.8 hPa ESE 26.9 km/h 26.9 km/h 55 % 0 mm
19:40 -11.7 °C -14.6 °C 34601.5 hPa Calm   2.6 km/h 70 % 0 mm
19:41 -9 °C -14 °C 34533.8 hPa ESE 26.9 km/h 26.9 km/h 55 % 0 mm
19:46 -9 °C -14 °C 34533.8 hPa ESE 26.9 km/h 26.9 km/h 55 % 0 mm
19:50 -11.7 °C -14.6 °C 34635.4 hPa East 5.1 km/h 5.1 km/h 70 % 0 mm
19:56 -9 °C -14 °C 34533.8 hPa ESE 26.9 km/h 26.9 km/h 55 % 0 mm
20:00 -11.8 °C -14.8 °C 34635.4 hPa Calm   7.7 km/h 70 % 0 mm
20:01 -9 °C -14 °C 34533.8 hPa ESE 26.9 km/h 26.9 km/h 55 % 0 mm
20:10 -12.1 °C -15.1 °C 34635.4 hPa SSW 2.6 km/h 5.1 km/h 70 % 0 mm
20:11 -9 °C -14 °C 34533.8 hPa ESE 26.9 km/h 26.9 km/h 55 % 0 mm
20:16 -9 °C -14 °C 34533.8 hPa ESE 26.9 km/h 26.9 km/h 55 % 0 mm
20:20 -12.2 °C -14.9 °C 34635.4 hPa WSW 5.1 km/h 7.7 km/h 71 % 0 mm
20:21 -9 °C -14 °C 34533.8 hPa ESE 26.9 km/h 26.9 km/h 55 % 0 mm
20:26 -9 °C -14 °C 34533.8 hPa ESE 26.9 km/h 26.9 km/h 55 % 0 mm
20:30 -12.3 °C -14.8 °C 34635.4 hPa Calm   5.1 km/h 73 % 0 mm
20:31 -9 °C -14 °C 34533.8 hPa ESE 26.9 km/h 26.9 km/h 55 % 0 mm
20:36 -9 °C -14 °C 34533.8 hPa ESE 26.9 km/h 26.9 km/h 55 % 0 mm
20:40 -12.3 °C -14.7 °C 34635.4 hPa Calm     74 % 0 mm
20:41 -9 °C -14 °C 34533.8 hPa ESE 26.9 km/h 26.9 km/h 55 % 0 mm
20:46 -9 °C -14 °C 34533.8 hPa ESE 26.9 km/h 26.9 km/h 55 % 0 mm
20:51 -9 °C -14 °C 34533.8 hPa ESE 26.9 km/h 26.9 km/h 55 % 0 mm
20:56 -9 °C -14 °C 34533.8 hPa ESE 26.9 km/h 26.9 km/h 55 % 0 mm
21:00 -12.4 °C -15 °C 34635.4 hPa SW 2.6 km/h 5.1 km/h 73 % 0 mm
21:01 -9 °C -14 °C 34533.8 hPa ESE 26.9 km/h 26.9 km/h 55 % 0 mm
21:06 -9 °C -14 °C 34533.8 hPa ESE 26.9 km/h 26.9 km/h 55 % 0 mm
21:10 -12.6 °C -15 °C 34635.4 hPa Calm   5.1 km/h 74 % 0 mm
21:11 -9 °C -14 °C 34533.8 hPa ESE 26.9 km/h 26.9 km/h 55 % 0 mm
21:16 -9 °C -14 °C 34533.8 hPa ESE 26.9 km/h 26.9 km/h 55 % 0 mm
21:20 -12.7 °C -15.1 °C 34635.4 hPa Calm   2.6 km/h 74 % 0 mm
21:21 -9 °C -14 °C 34533.8 hPa ESE 26.9 km/h 26.9 km/h 55 % 0 mm
21:26 -9 °C -14 °C 34533.8 hPa ESE 26.9 km/h 26.9 km/h 55 % 0 mm
21:30 -12.6 °C -14.9 °C 34635.4 hPa Calm     75 % 0 mm
21:31 -9 °C -14 °C 34533.8 hPa ESE 26.9 km/h 26.9 km/h 55 % 0 mm
21:36 -9 °C -14 °C 34533.8 hPa ESE 26.9 km/h 26.9 km/h 55 % 0 mm
21:40 -12.6 °C -14.9 °C 34635.4 hPa Calm     75 % 0 mm
21:41 -9 °C -14 °C 34533.8 hPa ESE 26.9 km/h 26.9 km/h 55 % 0 mm
21:46 -9 °C -14 °C 34533.8 hPa ESE 26.9 km/h 26.9 km/h 55 % 0 mm
21:50 -12.5 °C -14.8 °C 34635.4 hPa WSW 2.6 km/h 2.6 km/h 75 % 0 mm
21:51 -9 °C -14 °C 34533.8 hPa ESE 26.9 km/h 26.9 km/h 55 % 0 mm
21:56 -9 °C -14 °C 34533.8 hPa ESE 26.9 km/h 26.9 km/h 55 % 0 mm
22:00 -12.5 °C -14.8 °C 34601.5 hPa WNW 2.6 km/h 2.6 km/h 75 % 0 mm
22:01 -9 °C -14 °C 34533.8 hPa ESE 26.9 km/h 26.9 km/h 55 % 0 mm
22:06 -9 °C -14 °C 34533.8 hPa ESE 26.9 km/h 26.9 km/h 55 % 0 mm
22:10 -12.5 °C -14.8 °C 34601.5 hPa North 2.6 km/h 5.1 km/h 75 % 0 mm
22:11 -9 °C -14 °C 34533.8 hPa ESE 26.9 km/h 26.9 km/h 55 % 0 mm
22:16 -9 °C -14 °C 34533.8 hPa ESE 26.9 km/h 26.9 km/h 55 % 0 mm
22:20 -12.7 °C -15.3 °C 34601.5 hPa NNW 2.6 km/h 5.1 km/h 73 % 0 mm
22:21 -9 °C -14 °C 34533.8 hPa ESE 26.9 km/h 26.9 km/h 55 % 0 mm
22:27 -9 °C -14 °C 34533.8 hPa ESE 26.9 km/h 26.9 km/h 55 % 0 mm
22:30 -12.8 °C -15.1 °C 34601.5 hPa Calm   2.6 km/h 75 % 0 mm
22:32 -9 °C -14 °C 34533.8 hPa ESE 26.9 km/h 26.9 km/h 55 % 0 mm
22:37 -9 °C -14 °C 34533.8 hPa ESE 26.9 km/h 26.9 km/h 55 % 0 mm
22:40 -12.8 °C -15 °C 34601.5 hPa Calm   2.6 km/h 76 % 0 mm
22:42 -9 °C -14 °C 34533.8 hPa ESE 26.9 km/h 26.9 km/h 55 % 0 mm
22:47 -9 °C -14 °C 34533.8 hPa ESE 26.9 km/h 26.9 km/h 55 % 0 mm
22:50 -12.8 °C -15.2 °C 34601.5 hPa West 2.6 km/h 2.6 km/h 75 % 0 mm
22:52 -9 °C -14 °C 34533.8 hPa ESE 26.9 km/h 26.9 km/h 55 % 0 mm
22:57 -9 °C -14 °C 34533.8 hPa ESE 26.9 km/h 26.9 km/h 55 % 0 mm
23:00 -12.8 °C -15.1 °C 34601.5 hPa Calm   2.6 km/h 76 % 0 mm
23:02 -9 °C -14 °C 34533.8 hPa ESE 26.9 km/h 26.9 km/h 55 % 0 mm
23:07 -9 °C -14 °C 34533.8 hPa ESE 26.9 km/h 26.9 km/h 55 % 0 mm
23:10 -12.8 °C -15.1 °C 34601.5 hPa Calm   2.6 km/h 76 % 0 mm
23:12 -9 °C -14 °C 34533.8 hPa ESE 26.9 km/h 26.9 km/h 55 % 0 mm
23:17 -9 °C -14 °C 34533.8 hPa ESE 26.9 km/h 26.9 km/h 55 % 0 mm
23:20 -13.2 °C -15.6 °C 34601.5 hPa WNW 5.1 km/h 7.7 km/h 74 % 0 mm
23:22 -9 °C -14 °C 34533.8 hPa ESE 26.9 km/h 26.9 km/h 55 % 0 mm
23:27 -9 °C -14 °C 34533.8 hPa ESE 26.9 km/h 26.9 km/h 55 % 0 mm
23:30 -13.1 °C -15.3 °C 34567.7 hPa Calm   5.1 km/h 76 % 0 mm
23:32 -9 °C -14 °C 34533.8 hPa ESE 26.9 km/h 26.9 km/h 55 % 0 mm
23:37 -9 °C -14 °C 34533.8 hPa ESE 26.9 km/h 26.9 km/h 55 % 0 mm
23:40 -13.1 °C -15.3 °C 34567.7 hPa South 2.6 km/h 5.1 km/h 76 % 0 mm
23:42 -9 °C -14 °C 34533.8 hPa ESE 26.9 km/h 26.9 km/h 55 % 0 mm
23:47 -9 °C -14 °C 34533.8 hPa ESE 26.9 km/h 26.9 km/h 55 % 0 mm
23:50 -13.2 °C -15.5 °C 34567.7 hPa Calm   2.6 km/h 75 % 0 mm
23:52 -9 °C -14 °C 34533.8 hPa ESE 26.9 km/h 26.9 km/h 55 % 0 mm
23:57 -9 °C -14 °C 34533.8 hPa ESE 26.9 km/h 26.9 km/h 55 % 0 mm
Meteo Sesrovires
Elogis d' Weather Underground - 2 mb

Guio original per  Jim McMurry - jmcmurry@mwt.net Adaptat per a la plantilla per  Wim van der Kuil - Leuven-Template.eu

Trobareu la nostra informacio del temps tambe a:

Weather Underground

AWEKAS